Terminal Aerodrome Forecast
Issued by NWS Bismarck, ND

Home | Current Version | Previous Version | Text Only | Print | Product List | Glossary Off
Versions: 1 2 3 4 5 6 7 8 9 10 11 12 13 14 15 16 17 18

945
FTUS43 KBIS 060529
TAFBIS
TAF
KBIS 060529Z 0606/0706 21005KT P6SM SCT250
     FM060800 22005KT P6SM SCT250 WS020/28035KT
     FM061800 26012KT P6SM SCT250 WS020/29040KT
     FM062000 27016G24KT P6SM BKN200 WS020/28045KT
     FM070000 28023G32KT P6SM BKN200 WS020/28050KT
     FM070400 29024G34KT P6SM BKN130=

USA.gov is the U.S. government's official web portal to all federal, state and local government web resources and services.